Coral Favia — PHKM — position and weather

sailwx.info

Track history (hours):
 
Tides and Currents Weather Stations Pressure Air Temp Water Temp Dewpoint Dewpoint Depression Visibility Wind Speed Wind Dir Waves Ship Positions

Coral Favia

Last reported at 2015-Jan-25 21:30 UTC. Time now 2015-Jan-25 22:26 UTC.
Position N 51°25' E 002°39'.

Length 100 m; beam 17 m.

Type: Tanker. MMSI: 244627000.

Date/timePositionNaut miles runAvg speedWind from/ knotsBaromVisibWave heightAir tempDewpointWater temp
2015-Jan-25 21:30N 51°25' E 002°39'0 0.0
2015-Jan-25 20:33N 51°25' E 002°39'0 0.0
2015-Jan-25 19:33N 51°25' E 002°39'0 0.0
2015-Jan-25 18:33N 51°25' E 002°39'0 0.0
2015-Jan-25 17:33N 51°25' E 002°39'0 0.0
2015-Jan-25 16:33N 51°25' E 002°39'0 0.0
2015-Jan-25 15:30N 51°25' E 002°39'0 0.1
2015-Jan-25 14:33N 51°25' E 002°39'0 0.1
2015-Jan-25 13:33N 51°25' E 002°39'0 0.0
2015-Jan-25 12:33N 51°25' E 002°39'0 0.0
2015-Jan-25 11:33N 51°25' E 002°39'0 0.0
2015-Jan-25 10:33N 51°25' E 002°39'0 0.1
2015-Jan-25 09:18N 51°25' E 002°39'0 0.1
2015-Jan-25 08:33N 51°25' E 002°39'0 0.1
2015-Jan-25 07:33N 51°25' E 002°39'0 0.0
2015-Jan-25 06:33N 51°25' E 002°39'0 0.0
2015-Jan-25 05:33N 51°25' E 002°39'0 0.0
2015-Jan-25 04:33N 51°25' E 002°39'1 0.8
2015-Jan-25 03:31N 51°24' E 002°38'0 0.1
2015-Jan-25 02:32N 51°24' E 002°38'0 0.1
2015-Jan-25 01:31N 51°24' E 002°38'0 0.0
2015-Jan-25 00:29N 51°24' E 002°38'0 0.0
2015-Jan-24 23:31N 51°24' E 002°38'0 0.0
2015-Jan-24 22:31N 51°24' E 002°38'0 0.0
2015-Jan-24 21:31N 51°24' E 002°38'0 0.0
2015-Jan-24 20:32N 51°24' E 002°38'0 0.1
2015-Jan-24 19:28N 51°24' E 002°38'0 0.0
2015-Jan-24 18:28N 51°24' E 002°38'0 0.1
2015-Jan-24 17:32N 51°24' E 002°38'0 0.0
2015-Jan-24 16:32N 51°24' E 002°38'0 0.0
2015-Jan-24 15:25N 51°24' E 002°38'0 0.1
2015-Jan-24 14:31N 51°24' E 002°38'0 0.1
2015-Jan-24 13:29N 51°24' E 002°38'0 0.1
2015-Jan-24 12:32N 51°24' E 002°38'0 0.0
2015-Jan-24 11:29N 51°24' E 002°38'0 0.0
2015-Jan-24 10:31N 51°24' E 002°38'0 0.0
2015-Jan-24 09:14N 51°24' E 002°38'0 0.1
2015-Jan-24 08:32N 51°24' E 002°38'0 0.1
2015-Jan-24 07:31N 51°24' E 002°38'0 0.1
2015-Jan-24 06:32N 51°24' E 002°38'0 0.1
2015-Jan-24 05:31N 51°24' E 002°38'0 0.1
2015-Jan-24 04:29N 51°24' E 002°38'0 0.0
2015-Jan-24 03:31N 51°24' E 002°38'0 0.0
2015-Jan-24 02:31N 51°24' E 002°38'0 0.0
2015-Jan-24 01:28N 51°24' E 002°38'0 0.2
2015-Jan-24 00:31N 51°24' E 002°38'0 0.0
2015-Jan-23 23:31N 51°24' E 002°38'0 0.0
2015-Jan-23 22:32N 51°24' E 002°38'0 0.0
2015-Jan-23 21:31N 51°24' E 002°38'0 0.1
2015-Jan-23 20:31N 51°24' E 002°38'0 0.1
2015-Jan-23 19:32N 51°24' E 002°38'0 0.0
2015-Jan-23 18:31N 51°24' E 002°38'0 0.0
2015-Jan-23 17:28N 51°24' E 002°38'0 0.0
2015-Jan-23 16:31N 51°24' E 002°38'0 0.0
2015-Jan-23 15:28N 51°24' E 002°38'0 0.0
2015-Jan-23 14:32N 51°24' E 002°38'0 0.0
2015-Jan-23 13:32N 51°24' E 002°38'0 0.1
2015-Jan-23 12:23N 51°24' E 002°38'0 0.0
2015-Jan-23 11:31N 51°24' E 002°38'0 0.0
2015-Jan-23 10:29N 51°24' E 002°38'0 0.0
2015-Jan-23 09:33N 51°24' E 002°38'0 0.0
2015-Jan-23 08:32N 51°24' E 002°38'6 6.4
2015-Jan-23 07:33N 51°22' E 002°29'1211.7
2015-Jan-23 06:31N 51°17' E 002°11'1313.2
2015-Jan-23 05:32N 51°10' E 001°53'1313.8
2015-Jan-23 04:33N 51°01' E 001°37'1414.3
2015-Jan-23 03:33N 50°49' E 001°26'1613.5
2015-Jan-23 02:21N 50°36' E 001°10'  
2015-Jan-16 21:33N 43°33' W 003°03'2 1.6
2015-Jan-16 20:33N 43°33' W 003°00'2 1.8
2015-Jan-16 19:33N 43°33' W 002°58'1 1.3
2015-Jan-16 18:33N 43°33' W 002°56'1 1.2
2015-Jan-16 17:33N 43°33' W 002°55'1 0.6
2015-Jan-16 16:33N 43°32' W 002°54'1 0.8
2015-Jan-16 15:33N 43°32' W 002°53'0 0.5
2015-Jan-16 14:33N 43°32' W 002°53'1 0.6
2015-Jan-16 13:33N 43°32' W 002°53'7 7.2
2015-Jan-16 12:33N 43°35' W 003°03'6 6.4
2015-Jan-16 11:33N 43°37' W 003°11'7 6.9
2015-Jan-16 10:33N 43°39' W 003°20'1 1.2
2015-Jan-16 09:33N 43°40' W 003°21'1 1.1
2015-Jan-16 08:33N 43°40' W 003°20'2 2.1
2015-Jan-16 07:33N 43°39' W 003°17'1 1.1
2015-Jan-16 06:33N 43°38' W 003°16'1 1.1
2015-Jan-16 05:33N 43°37' W 003°15'3 2.6
2015-Jan-16 04:33N 43°35' W 003°12'3 2.8
2015-Jan-16 03:33N 43°34' W 003°09'3 2.9
2015-Jan-16 02:33N 43°32' W 003°06'3 2.8
2015-Jan-16 01:33N 43°31' W 003°03'2 1.7
2015-Jan-16 00:33N 43°30' W 003°00'6 6.2
2015-Jan-15 23:33N 43°33' W 003°08'6 5.6
2015-Jan-15 22:33N 43°37' W 003°13'6 5.6
2015-Jan-15 21:32N 43°40' W 003°20'  
Track history (hours):
 
Tides and Currents Weather Stations Pressure Air Temp Water Temp Dewpoint Dewpoint Depression Visibility Wind Speed Wind Dir Waves Ship Positions

Coral Favia

Last reported at 2015-Jan-25 21:30 UTC. Time now 2015-Jan-25 22:26 UTC.
Position N 51°25' E 002°39'.

Length 100 m; beam 17 m.

Type: Tanker. MMSI: 244627000.

Date/timePositionNaut miles runAvg speedWind from/ knotsBaromVisibWave heightAir tempDewpointWater temp
2015-Jan-25 21:30N 51°25' E 002°39'0 0.0
2015-Jan-25 20:33N 51°25' E 002°39'0 0.0
2015-Jan-25 19:33N 51°25' E 002°39'0 0.0
2015-Jan-25 18:33N 51°25' E 002°39'0 0.0
2015-Jan-25 17:33N 51°25' E 002°39'0 0.0
2015-Jan-25 16:33N 51°25' E 002°39'0 0.0
2015-Jan-25 15:30N 51°25' E 002°39'0 0.1
2015-Jan-25 14:33N 51°25' E 002°39'0 0.1
2015-Jan-25 13:33N 51°25' E 002°39'0 0.0
2015-Jan-25 12:33N 51°25' E 002°39'0 0.0
2015-Jan-25 11:33N 51°25' E 002°39'0 0.0
2015-Jan-25 10:33N 51°25' E 002°39'0 0.1
2015-Jan-25 09:18N 51°25' E 002°39'0 0.1
2015-Jan-25 08:33N 51°25' E 002°39'0 0.1
2015-Jan-25 07:33N 51°25' E 002°39'0 0.0
2015-Jan-25 06:33N 51°25' E 002°39'0 0.0
2015-Jan-25 05:33N 51°25' E 002°39'0 0.0
2015-Jan-25 04:33N 51°25' E 002°39'1 0.8
2015-Jan-25 03:31N 51°24' E 002°38'0 0.1
2015-Jan-25 02:32N 51°24' E 002°38'0 0.1
2015-Jan-25 01:31N 51°24' E 002°38'0 0.0
2015-Jan-25 00:29N 51°24' E 002°38'0 0.0
2015-Jan-24 23:31N 51°24' E 002°38'0 0.0
2015-Jan-24 22:31N 51°24' E 002°38'0 0.0
2015-Jan-24 21:31N 51°24' E 002°38'0 0.0
2015-Jan-24 20:32N 51°24' E 002°38'0 0.1
2015-Jan-24 19:28N 51°24' E 002°38'0 0.0
2015-Jan-24 18:28N 51°24' E 002°38'0 0.1
2015-Jan-24 17:32N 51°24' E 002°38'0 0.0
2015-Jan-24 16:32N 51°24' E 002°38'0 0.0
2015-Jan-24 15:25N 51°24' E 002°38'0 0.1
2015-Jan-24 14:31N 51°24' E 002°38'0 0.1
2015-Jan-24 13:29N 51°24' E 002°38'0 0.1
2015-Jan-24 12:32N 51°24' E 002°38'0 0.0
2015-Jan-24 11:29N 51°24' E 002°38'0 0.0
2015-Jan-24 10:31N 51°24' E 002°38'0 0.0
2015-Jan-24 09:14N 51°24' E 002°38'0 0.1
2015-Jan-24 08:32N 51°24' E 002°38'0 0.1
2015-Jan-24 07:31N 51°24' E 002°38'0 0.1
2015-Jan-24 06:32N 51°24' E 002°38'0 0.1
2015-Jan-24 05:31N 51°24' E 002°38'0 0.1
2015-Jan-24 04:29N 51°24' E 002°38'0 0.0
2015-Jan-24 03:31N 51°24' E 002°38'0 0.0
2015-Jan-24 02:31N 51°24' E 002°38'0 0.0
2015-Jan-24 01:28N 51°24' E 002°38'0 0.2
2015-Jan-24 00:31N 51°24' E 002°38'0 0.0
2015-Jan-23 23:31N 51°24' E 002°38'0 0.0
2015-Jan-23 22:32N 51°24' E 002°38'0 0.0
2015-Jan-23 21:31N 51°24' E 002°38'0 0.1
2015-Jan-23 20:31N 51°24' E 002°38'0 0.1
2015-Jan-23 19:32N 51°24' E 002°38'0 0.0
2015-Jan-23 18:31N 51°24' E 002°38'0 0.0
2015-Jan-23 17:28N 51°24' E 002°38'0 0.0
2015-Jan-23 16:31N 51°24' E 002°38'0 0.0
2015-Jan-23 15:28N 51°24' E 002°38'0 0.0
2015-Jan-23 14:32N 51°24' E 002°38'0 0.0
2015-Jan-23 13:32N 51°24' E 002°38'0 0.1
2015-Jan-23 12:23N 51°24' E 002°38'0 0.0
2015-Jan-23 11:31N 51°24' E 002°38'0 0.0
2015-Jan-23 10:29N 51°24' E 002°38'0 0.0
2015-Jan-23 09:33N 51°24' E 002°38'0 0.0
2015-Jan-23 08:32N 51°24' E 002°38'6 6.4
2015-Jan-23 07:33N 51°22' E 002°29'1211.7
2015-Jan-23 06:31N 51°17' E 002°11'1313.2
2015-Jan-23 05:32N 51°10' E 001°53'1313.8
2015-Jan-23 04:33N 51°01' E 001°37'1414.3
2015-Jan-23 03:33N 50°49' E 001°26'1613.5
2015-Jan-23 02:21N 50°36' E 001°10'  
2015-Jan-16 21:33N 43°33' W 003°03'2 1.6
2015-Jan-16 20:33N 43°33' W 003°00'2 1.8
2015-Jan-16 19:33N 43°33' W 002°58'1 1.3
2015-Jan-16 18:33N 43°33' W 002°56'1 1.2
2015-Jan-16 17:33N 43°33' W 002°55'1 0.6
2015-Jan-16 16:33N 43°32' W 002°54'1 0.8
2015-Jan-16 15:33N 43°32' W 002°53'0 0.5
2015-Jan-16 14:33N 43°32' W 002°53'1 0.6
2015-Jan-16 13:33N 43°32' W 002°53'7 7.2
2015-Jan-16 12:33N 43°35' W 003°03'6 6.4
2015-Jan-16 11:33N 43°37' W 003°11'7 6.9
2015-Jan-16 10:33N 43°39' W 003°20'1 1.2
2015-Jan-16 09:33N 43°40' W 003°21'1 1.1
2015-Jan-16 08:33N 43°40' W 003°20'2 2.1
2015-Jan-16 07:33N 43°39' W 003°17'1 1.1
2015-Jan-16 06:33N 43°38' W 003°16'1 1.1
2015-Jan-16 05:33N 43°37' W 003°15'3 2.6
2015-Jan-16 04:33N 43°35' W 003°12'3 2.8
2015-Jan-16 03:33N 43°34' W 003°09'3 2.9
2015-Jan-16 02:33N 43°32' W 003°06'3 2.8
2015-Jan-16 01:33N 43°31' W 003°03'2 1.7
2015-Jan-16 00:33N 43°30' W 003°00'6 6.2
2015-Jan-15 23:33N 43°33' W 003°08'6 5.6
2015-Jan-15 22:33N 43°37' W 003°13'6 5.6
2015-Jan-15 21:32N 43°40' W 003°20'  

Dump ship's entire track history